Acorn, Arkansas
Current Conditions -  °F | °C
As of 2:35 PM on Sunday 21 Dec 2014 (Local Time) from KMEZ Reporting Station
Overcast Overcast  
Wind Chill: 50°   Ceiling: 2300
Heat Index: 50°   Visibility: 10mi
Dew Point: 41°   Wind: 5mph
Humidity: 71%   Direction: 140°SE
Pressure: 29.94"   Gusts: NA
Location:  34.592°N, 94.1901°W
Report Text: KMEZ 212035Z AUTO 14004KT 10SM BKN023 OVC070 10/05 A2994 RMK AO2
Loading
Personal Weather Stations






























Interactive Weather Map New forecast layout! Learn more

10-Day Weather Forecast

Advertisements
Track Severe Weather on mobile